Bismarck, ND

12:06 PM CDT on September 05, 2015 (GMT -0500)
Lincoln | | Change Station
CLOSE
Current Station
Personal Weather Station
Location: Lincoln, ND
Elevation: 1670 ft
Nearby Weather Stations

Elev 1670 ft 46.76 °N, 100.71 °W | Updated 14 minutes ago

Overcast
Overcast
70.7 °F
Feels Like 70.7 °F
N
9.4
Wind Variable Wind from ESE

Today
High -- | Low -- °F
--% Chance of Precip.
Yesterday
High -- | Low -- °F
Precip. -- in
7:07 AM 8:14 PM
Waning Gibbous, 47% visible
Pressure 29.81 in
Visibility 10.0 miles
Clouds Overcast 700 ft
Dew Point 70 °F
Humidity 97%
Rainfall 0.00 in
Snow Depth Not available.
UV 2 out of 12
Pollen 9.30 out of 12
Air Quality Not available.
Flu Activity Not available.
METAR KBIS 051652Z 10009KT 10SM OVC007 21/20 A2982 RMK AO2 LTG DSNT SW AND W SLP093 T02110200
Pressure 29.81 in
Visibility 10.0 miles
Clouds Overcast 700 ft
Dew Point 70 °F
Humidity 97%
Rainfall 0.00 in
Snow Depth Not available.
UV 2 out of 12
Pollen 9.30 out of 12
Air Quality Not available.
Flu Activity Not available.
METAR KBIS 051652Z 10009KT 10SM OVC007 21/20 A2982 RMK AO2 LTG DSNT SW AND W SLP093 T02110200

10-Day Weather Forecast

×

Almanac

Astronomy

Sep. 05, 2015 Rise Set
Actual Time
Civil Twilight
Nautical Twilight
Astronomical Twilight
Moon
Length of Visible Light
Length of Day
Tomorrow will be .
, % of the Moon is Illuminated

Today's Extremes

State Highs State Lows

Community

WunderPhotos

Upload Photos

1,852,503 photos uploaded!

WunderBlogs® & News

Nearby

Air Quality

  Air Quality AQ Index Pollutant
Not available.

Snow Depth

Station Depth Elevation

Earthquake Activity

City Distance Mag. Time & Date
Minimum magnitude displayed is 2.5.

Coastal Water Temperatures

Place Temperature

Stations

Nearby Weather Stations

Station Location Temp. Windchill Dew Point Humidity Wind Precip. Elev Updated Type